Time;durP1;ratioP1;P1;durP2;ratioP2;P2;SDS_P1;SDS_P2;PMS_P1;PMS_P2;Temp;Humidity;BMP_temperature;BMP_pressure;BME280_temperature;BME280_humidity;BME280_pressure;Samples;Min_cycle;Max_cycle;Signal;HPM_P1;HPM_P2
2022/06/06 00:01:20;;;;;;;43.33;30.15;;;16.20;99.90;;;;;;7324949;32;20142;-62
2022/06/06 00:05:22;;;;;;;42.97;29.45;;;16.10;99.90;;;;;;7321856;32;20147;-62
2022/06/06 00:09:26;;;;;;;39.53;28.83;;;16.00;99.90;;;;;;7322641;32;20165;-62
2022/06/06 00:13:28;;;;;;;38.08;27.77;;;16.00;99.90;;;;;;7325100;32;20949;-63
2022/06/06 00:17:30;;;;;;;39.72;27.80;;;15.90;99.90;;;;;;7316009;32;20237;-61
2022/06/06 00:21:33;;;;;;;38.78;28.23;;;15.90;99.90;;;;;;7325172;32;20108;-63
2022/06/06 00:25:35;;;;;;;42.35;27.95;;;15.90;99.90;;;;;;7328771;32;20187;-62
2022/06/06 00:29:37;;;;;;;39.00;27.73;;;15.80;99.90;;;;;;7328960;32;20144;-62
2022/06/06 00:38:00;;;;;;;42.50;29.55;;;15.90;99.90;;;;;;7315450;32;20234;-64
2022/06/06 00:42:01;;;;;;;43.35;30.48;;;15.80;99.90;;;;;;7319192;32;20475;-63
2022/06/06 00:46:05;;;;;;;40.40;29.42;;;15.80;99.90;;;;;;7323950;32;20157;-63
2022/06/06 00:50:14;;;;;;;41.88;28.55;;;15.70;99.90;;;;;;7337095;32;20134;-62
2022/06/06 00:54:16;;;;;;;45.90;31.15;;;15.80;99.90;;;;;;7324442;32;20447;-64
2022/06/06 00:58:22;;;;;;;41.50;29.63;;;15.70;99.90;;;;;;7325240;32;20193;-62
2022/06/06 01:02:24;;;;;;;45.65;31.58;;;15.70;99.90;;;;;;7319318;32;21858;-63
2022/06/06 01:06:29;;;;;;;47.65;32.08;;;15.70;99.90;;;;;;7321586;32;20235;-63
2022/06/06 01:10:31;;;;;;;54.17;33.40;;;15.70;99.90;;;;;;7332009;32;20436;-63
2022/06/06 01:14:38;;;;;;;46.78;33.58;;;15.70;99.90;;;;;;7323724;32;20230;-63
2022/06/06 01:18:59;;;;;;;56.37;34.65;;;15.60;99.90;;;;;;7324738;32;20360;-64
2022/06/06 01:23:00;;;;;;;55.70;34.53;;;15.60;99.90;;;;;;7320276;32;20123;-62
2022/06/06 01:27:24;;;;;;;53.25;34.83;;;15.50;99.90;;;;;;7319184;32;20375;-63
2022/06/06 01:31:34;;;;;;;47.88;33.28;;;15.50;99.90;;;;;;7318789;32;20108;-62
2022/06/06 01:35:41;;;;;;;52.90;33.75;;;15.40;99.90;;;;;;7323322;32;20127;-63
2022/06/06 01:39:42;;;;;;;52.60;33.33;;;15.30;99.90;;;;;;7324384;32;20108;-62
2022/06/06 01:43:50;;;;;;;53.33;33.90;;;15.20;99.90;;;;;;7320802;32;20202;-63
2022/06/06 01:48:29;;;;;;;51.80;34.08;;;15.20;99.90;;;;;;7319038;32;20190;-62
2022/06/06 01:52:47;;;;;;;;;;;15.20;99.90;;;;;;7289637;32;20135;-63
2022/06/06 01:56:49;;;;;;;57.38;34.45;;;15.10;99.90;;;;;;7319467;32;20809;-64
2022/06/06 02:00:51;;;;;;;54.83;34.92;;;15.10;99.90;;;;;;7326339;32;20743;-62
2022/06/06 02:04:53;;;;;;;52.42;33.97;;;15.10;99.90;;;;;;7323536;32;20349;-62
2022/06/06 02:08:55;;;;;;;50.80;33.88;;;15.00;99.90;;;;;;7315817;32;20655;-63
2022/06/06 02:12:56;;;;;;;53.17;32.17;;;15.10;99.90;;;;;;7319488;32;20130;-63
2022/06/06 02:16:58;;;;;;;59.40;35.03;;;15.00;99.90;;;;;;7314384;32;20139;-63
2022/06/06 02:21:01;;;;;;;58.00;35.03;;;15.00;99.90;;;;;;7313124;32;20260;-63
2022/06/06 02:25:06;;;;;;;55.67;34.58;;;15.00;99.90;;;;;;7325065;32;20129;-63
2022/06/06 02:29:08;;;;;;;55.03;31.58;;;15.00;99.90;;;;;;7321583;32;20107;-62
2022/06/06 02:33:09;;;;;;;53.42;30.20;;;15.00;99.90;;;;;;7318849;32;20210;-63
2022/06/06 02:37:11;;;;;;;46.88;28.40;;;15.00;99.90;;;;;;7332086;32;20218;-63
2022/06/06 02:41:13;;;;;;;46.10;28.00;;;15.00;99.90;;;;;;7326800;32;20257;-62
2022/06/06 02:45:16;;;;;;;47.30;27.20;;;15.00;99.90;;;;;;7322303;32;20225;-62
2022/06/06 02:49:17;;;;;;;39.47;24.30;;;15.00;99.90;;;;;;7316199;32;20160;-63
2022/06/06 02:53:19;;;;;;;33.28;22.15;;;15.10;99.90;;;;;;7318562;32;20190;-63
2022/06/06 02:57:21;;;;;;;33.33;20.12;;;15.20;99.90;;;;;;7326171;32;20239;-64
2022/06/06 03:01:23;;;;;;;28.75;18.60;;;15.20;99.90;;;;;;7321410;32;20888;-62
2022/06/06 03:05:58;;;;;;;29.17;17.73;;;15.20;99.90;;;;;;7325174;32;20209;-63
2022/06/06 03:10:31;;;;;;;24.67;16.58;;;15.30;99.90;;;;;;7315310;32;20801;-62
2022/06/06 03:14:46;;;;;;;20.00;13.43;;;15.30;99.90;;;;;;7322619;32;20151;-63
2022/06/06 03:23:33;;;;;;;23.23;13.45;;;15.30;99.90;;;;;;7318351;32;20260;-62
2022/06/06 03:27:59;;;;;;;17.12;12.23;;;15.20;99.90;;;;;;7332434;32;20127;-60
2022/06/06 03:32:37;;;;;;;16.02;11.55;;;15.30;99.90;;;;;;7323638;32;20150;-62
2022/06/06 03:37:06;;;;;;;15.15;11.18;;;15.30;99.90;;;;;;7330326;32;20679;-63
2022/06/06 03:41:18;;;;;;;15.90;10.35;;;15.30;99.90;;;;;;7311145;32;20805;-62
2022/06/06 03:45:29;;;;;;;15.25;10.00;;;15.30;99.90;;;;;;7327459;32;20134;-63
2022/06/06 03:49:56;;;;;;;13.38;9.45;;;15.30;99.90;;;;;;7326895;32;20123;-62
2022/06/06 03:54:23;;;;;;;13.62;9.43;;;15.20;99.90;;;;;;7322559;32;20261;-63
2022/06/06 03:58:30;;;;;;;14.70;9.60;;;15.30;99.90;;;;;;7323187;32;20190;-62
2022/06/06 04:02:36;;;;;;;12.93;9.50;;;15.20;99.90;;;;;;7322404;32;20103;-62
2022/06/06 04:06:37;;;;;;;15.15;8.75;;;15.30;99.90;;;;;;7331675;32;20488;-62
2022/06/06 04:10:48;;;;;;;12.77;9.20;;;15.30;99.90;;;;;;7334608;32;20133;-62
2022/06/06 04:15:07;;;;;;;13.40;9.02;;;15.30;99.90;;;;;;7324215;32;20213;-61
2022/06/06 04:19:23;;;;;;;15.88;10.10;;;15.30;99.90;;;;;;7329096;32;20175;-62
2022/06/06 04:23:44;;;;;;;14.43;10.18;;;15.30;99.90;;;;;;7321571;32;20241;-63
2022/06/06 04:27:46;;;;;;;15.05;10.82;;;15.30;99.90;;;;;;7332407;32;20198;-61
2022/06/06 04:32:06;;;;;;;13.93;10.18;;;15.40;99.90;;;;;;7323270;32;20125;-62
2022/06/06 04:36:16;;;;;;;12.65;9.05;;;15.50;99.90;;;;;;7329075;32;20373;-62
2022/06/06 04:40:35;;;;;;;13.35;9.48;;;15.40;99.90;;;;;;7314458;32;20508;-63
2022/06/06 04:45:09;;;;;;;12.43;9.73;;;15.50;99.90;;;;;;7324796;32;20149;-62
2022/06/06 04:49:11;;;;;;;16.05;10.38;;;15.50;99.90;;;;;;7319487;32;20412;-62
2022/06/06 04:53:17;;;;;;;16.73;9.73;;;15.40;99.90;;;;;;7321935;32;20183;-62
2022/06/06 04:57:19;;;;;;;15.57;10.15;;;15.30;99.90;;;;;;7330578;32;20107;-63
2022/06/06 05:01:23;;;;;;;15.38;10.63;;;15.40;99.90;;;;;;7320309;32;20597;-62
2022/06/06 05:05:30;;;;;;;11.98;9.45;;;15.50;99.90;;;;;;7320971;32;20784;-62
2022/06/06 05:10:00;;;;;;;14.75;9.20;;;15.50;99.90;;;;;;7322833;32;20258;-63
2022/06/06 05:14:25;;;;;;;15.20;9.15;;;15.60;99.90;;;;;;7317809;32;20112;-62
2022/06/06 05:18:29;;;;;;;14.48;9.93;;;15.60;99.90;;;;;;7315880;32;20889;-63
2022/06/06 05:22:46;;;;;;;16.75;9.85;;;15.60;99.90;;;;;;7324018;32;20125;-63
2022/06/06 05:27:12;;;;;;;16.65;9.35;;;15.60;99.90;;;;;;7314992;32;20249;-61
2022/06/06 05:31:42;;;;;;;13.45;8.70;;;15.40;99.90;;;;;;7315154;32;20765;-63
2022/06/06 05:36:04;;;;;;;12.05;8.05;;;15.40;99.90;;;;;;7318487;32;20262;-62
2022/06/06 05:40:09;;;;;;;13.80;7.97;;;15.40;99.90;;;;;;7319146;32;20585;-62
2022/06/06 05:44:28;;;;;;;11.63;7.82;;;15.30;99.90;;;;;;7324194;32;20274;-62
2022/06/06 05:48:54;;;;;;;11.45;7.28;;;15.50;99.90;;;;;;7310521;32;20135;-64
2022/06/06 05:53:17;;;;;;;12.27;7.78;;;15.80;99.90;;;;;;7325076;32;20119;-65
2022/06/06 05:57:28;;;;;;;12.57;7.78;;;16.20;99.90;;;;;;7322436;32;20123;-64
2022/06/06 06:02:14;;;;;;;11.52;7.70;;;16.60;99.90;;;;;;7315498;32;20139;-64
2022/06/06 06:06:36;;;;;;;11.35;7.15;;;17.00;99.90;;;;;;7308964;32;20116;-65
2022/06/06 06:10:55;;;;;;;9.38;6.65;;;17.60;99.90;;;;;;7323422;32;20130;-66
2022/06/06 06:14:57;;;;;;;8.95;6.05;;;18.10;99.90;;;;;;7319368;32;20130;-69
2022/06/06 06:19:02;;;;;;;9.18;6.35;;;18.20;99.90;;;;;;7316670;32;20198;-65
2022/06/06 06:23:08;;;;;;;11.52;6.30;;;18.20;99.90;;;;;;7320917;32;20112;-67
2022/06/06 06:27:11;;;;;;;8.43;5.62;;;18.30;99.90;;;;;;7325413;32;20116;-68
2022/06/06 06:31:34;;;;;;;8.82;5.55;;;18.00;99.90;;;;;;7318639;32;20230;-63
2022/06/06 06:36:05;;;;;;;6.53;5.07;;;18.10;99.90;;;;;;7324549;32;20119;-65
2022/06/06 06:40:34;;;;;;;6.25;4.60;;;17.80;99.90;;;;;;7297789;32;20125;-63
2022/06/06 06:44:42;;;;;;;6.72;4.70;;;18.00;99.90;;;;;;7317621;32;20160;-64
2022/06/06 06:48:46;;;;;;;7.75;4.07;;;18.20;99.90;;;;;;7317520;32;20108;-60
2022/06/06 06:53:14;;;;;;;7.07;3.95;;;18.70;99.90;;;;;;7319804;32;20145;-63
2022/06/06 06:57:41;;;;;;;3.83;2.97;;;18.70;99.90;;;;;;7318666;32;20111;-63
2022/06/06 07:08:32;;;;;;;4.15;2.90;;;18.30;99.90;;;;;;7316475;32;20115;-63
2022/06/06 07:10:46;;;;;;;4.80;2.92;;;17.80;99.90;;;;;;7327109;32;20195;-61
2022/06/06 07:15:05;;;;;;;4.40;2.42;;;17.80;99.90;;;;;;7316347;32;20436;-62
2022/06/06 07:19:15;;;;;;;4.87;2.08;;;17.60;99.90;;;;;;7317565;32;20166;-61
2022/06/06 07:23:17;;;;;;;5.18;2.83;;;17.50;99.90;;;;;;7316384;32;20103;-59
2022/06/06 07:27:19;;;;;;;3.72;2.03;;;17.40;99.90;;;;;;7315249;32;20116;-60
2022/06/06 07:31:33;;;;;;;4.68;2.33;;;17.30;99.90;;;;;;7325632;32;20220;-59
2022/06/06 07:35:42;;;;;;;3.75;1.83;;;17.20;99.90;;;;;;7318768;32;20204;-60
2022/06/06 07:40:12;;;;;;;4.37;1.70;;;17.20;99.90;;;;;;7322762;32;20874;-59
2022/06/06 07:45:01;;;;;;;3.53;1.83;;;17.20;99.90;;;;;;7310545;32;20191;-65
2022/06/06 07:49:05;;;;;;;;;;;17.30;99.90;;;;;;7332405;32;20546;-63
2022/06/06 07:53:43;;;;;;;3.00;1.77;;;17.50;99.90;;;;;;7323039;32;20014;-62
2022/06/06 07:58:12;;;;;;;2.45;1.23;;;17.70;99.90;;;;;;7315143;32;20107;-63
2022/06/06 08:02:20;;;;;;;1.73;1.20;;;17.70;99.90;;;;;;7318440;32;20119;-63
2022/06/06 08:06:57;;;;;;;2.22;1.48;;;17.90;99.90;;;;;;7323278;32;20231;-62
2022/06/06 08:11:10;;;;;;;2.27;1.20;;;18.00;99.90;;;;;;7325461;32;20202;-62
2022/06/06 08:15:24;;;;;;;1.58;0.80;;;18.20;99.90;;;;;;7310386;32;20249;-64
2022/06/06 08:19:44;;;;;;;2.55;0.90;;;18.50;99.90;;;;;;7319181;32;20345;-64
2022/06/06 08:23:51;;;;;;;2.03;0.90;;;18.70;99.90;;;;;;7322151;32;20707;-63
2022/06/06 08:27:56;;;;;;;1.30;0.77;;;19.00;99.90;;;;;;7320677;32;20143;-65
2022/06/06 08:31:58;;;;;;;2.37;1.08;;;19.00;99.90;;;;;;7318084;32;20452;-66
2022/06/06 08:36:14;;;;;;;1.73;0.98;;;19.10;99.90;;;;;;7313958;32;20453;-64
2022/06/06 08:40:39;;;;;;;3.50;1.00;;;19.30;99.90;;;;;;7324112;32;20111;-65
2022/06/06 08:45:05;;;;;;;2.33;0.70;;;19.70;99.90;;;;;;7321890;32;20202;-64
2022/06/06 08:53:43;;;;;;;2.50;0.75;;;19.70;99.90;;;;;;7317001;32;20252;-57
2022/06/06 08:57:51;;;;;;;1.02;0.60;;;19.50;99.90;;;;;;7320053;32;20770;-57
2022/06/06 09:02:17;;;;;;;2.40;0.60;;;19.40;99.90;;;;;;7326267;32;20519;-57
2022/06/06 09:06:57;;;;;;;3.20;0.70;;;19.40;99.90;;;;;;7322990;32;20176;-59
2022/06/06 09:11:40;;;;;;;1.42;0.60;;;19.10;99.90;;;;;;7317599;32;20139;-58
2022/06/06 09:16:01;;;;;;;4.35;0.70;;;19.50;99.90;;;;;;7317426;32;20233;-66
2022/06/06 09:20:05;;;;;;;2.35;0.60;;;20.10;99.90;;;;;;7316084;32;20479;-64
2022/06/06 09:24:40;;;;;;;1.58;0.52;;;20.70;99.90;;;;;;7316057;32;20138;-65
2022/06/06 09:28:54;;;;;;;3.20;0.50;;;20.70;99.90;;;;;;7316568;32;20119;-63
2022/06/06 09:33:13;;;;;;;1.35;0.43;;;20.50;99.90;;;;;;7316480;32;20170;-65
2022/06/06 09:37:39;;;;;;;4.55;0.62;;;20.30;99.90;;;;;;7317420;32;20448;-64
2022/06/06 09:41:59;;;;;;;0.95;0.50;;;20.00;99.90;;;;;;7315517;32;20624;-59
2022/06/06 09:46:05;;;;;;;1.90;0.60;;;19.40;99.90;;;;;;7334752;32;21018;-64
2022/06/06 09:50:26;;;;;;;2.05;0.50;;;19.00;99.90;;;;;;7321782;32;20164;-63
2022/06/06 09:59:36;;;;;;;2.95;0.68;;;18.80;99.90;;;;;;7322457;32;20780;-64
2022/06/06 10:04:10;;;;;;;2.00;0.60;;;18.70;99.90;;;;;;7321524;32;20133;-62
2022/06/06 10:08:48;;;;;;;3.65;0.80;;;18.90;99.90;;;;;;7318667;32;20100;-65
2022/06/06 10:12:56;;;;;;;12.63;0.70;;;19.80;99.90;;;;;;7325674;32;20111;-61
2022/06/06 10:17:16;;;;;;;3.10;0.57;;;20.50;99.90;;;;;;7328238;32;20112;-62
2022/06/06 10:21:55;;;;;;;2.05;0.98;;;21.30;99.90;;;;;;7310602;32;20123;-63
2022/06/06 10:26:09;;;;;;;2.78;1.00;;;22.20;99.90;;;;;;7326650;32;20104;-62
2022/06/06 10:30:45;;;;;;;0.75;0.50;;;22.60;99.90;;;;;;7325863;32;20194;-63
2022/06/06 10:35:06;;;;;;;5.35;0.82;;;23.10;99.90;;;;;;7316425;32;20136;-65
2022/06/06 10:39:36;;;;;;;2.50;0.70;;;23.20;99.90;;;;;;7322928;32;20108;-64
2022/06/06 10:43:44;;;;;;;2.58;0.70;;;24.00;99.90;;;;;;7315928;32;20218;-62
2022/06/06 10:48:04;;;;;;;3.22;0.80;;;23.50;99.90;;;;;;7321910;32;20314;-65
2022/06/06 10:52:12;;;;;;;3.00;0.80;;;23.70;99.90;;;;;;7323596;32;20217;-62
2022/06/06 10:56:32;;;;;;;3.85;0.73;;;23.00;98.60;;;;;;7316359;32;20111;-62
2022/06/06 11:01:15;;;;;;;3.60;0.60;;;22.70;99.50;;;;;;7325875;32;20134;-63
2022/06/06 11:05:38;;;;;;;3.33;0.50;;;22.10;99.90;;;;;;7314855;32;20505;-64
2022/06/06 11:10:18;;;;;;;2.40;0.62;;;21.70;99.90;;;;;;7317312;32;20876;-62
2022/06/06 11:14:28;;;;;;;2.40;0.60;;;21.90;99.90;;;;;;7313122;32;20131;-64
2022/06/06 11:18:45;;;;;;;2.97;0.50;;;21.70;99.90;;;;;;7321152;32;20134;-63
2022/06/06 11:23:26;;;;;;;1.00;0.43;;;21.80;99.90;;;;;;7323458;32;20134;-63
2022/06/06 11:27:37;;;;;;;3.15;0.55;;;20.50;99.90;;;;;;7318962;32;20116;-62
2022/06/06 11:32:00;;;;;;;2.45;0.40;;;19.50;99.90;;;;;;7322293;32;20138;-64
2022/06/06 11:36:36;;;;;;;1.83;0.60;;;18.40;99.90;;;;;;7326190;32;20115;-63
2022/06/06 11:40:59;;;;;;;1.30;0.50;;;18.00;99.90;;;;;;7324904;32;20912;-61
2022/06/06 11:45:23;;;;;;;3.05;0.90;;;17.70;99.90;;;;;;7324129;32;20206;-61
2022/06/06 11:49:43;;;;;;;3.10;0.95;;;17.40;99.90;;;;;;7333270;32;20138;-63
2022/06/06 11:54:34;;;;;;;4.95;0.73;;;17.00;99.90;;;;;;7324900;32;20500;-63
2022/06/06 11:59:01;;;;;;;3.15;0.82;;;16.60;99.90;;;;;;7326124;32;20210;-64
2022/06/06 12:03:03;;;;;;;2.85;0.60;;;17.10;99.90;;;;;;7330475;32;20558;-62
2022/06/06 12:07:23;;;;;;;2.22;0.90;;;17.80;99.90;;;;;;7331056;32;20134;-64
2022/06/06 12:11:52;;;;;;;1.05;0.55;;;18.20;99.90;;;;;;7316931;32;20111;-64
2022/06/06 12:16:11;;;;;;;1.20;0.77;;;18.70;99.90;;;;;;7339274;32;20241;-63
2022/06/06 12:20:50;;;;;;;3.17;0.80;;;19.20;99.90;;;;;;7330574;32;21704;-61
2022/06/06 12:25:41;;;;;;;3.25;0.80;;;19.50;99.90;;;;;;7326175;32;20584;-59
2022/06/06 12:30:02;;;;;;;0.98;0.70;;;19.70;99.90;;;;;;7303373;32;20126;-59
2022/06/06 12:34:24;;;;;;;5.18;1.05;;;20.10;99.90;;;;;;7325733;32;20478;-60
2022/06/06 12:38:47;;;;;;;1.70;0.90;;;20.50;99.90;;;;;;7318547;32;20959;-60
2022/06/06 12:43:04;;;;;;;3.10;0.88;;;20.60;99.90;;;;;;7326250;32;20444;-60
2022/06/06 12:47:18;;;;;;;2.55;0.85;;;20.80;99.90;;;;;;7332003;32;21297;-60
2022/06/06 12:52:00;;;;;;;2.28;0.60;;;21.10;99.90;;;;;;7326227;32;20115;-66
2022/06/06 12:56:22;;;;;;;1.33;0.50;;;21.20;99.90;;;;;;7320818;32;20108;-64
2022/06/06 13:05:25;;;;;;;1.62;0.80;;;21.20;99.90;;;;;;7328611;32;20732;-65
2022/06/06 13:10:00;;;;;;;2.95;0.82;;;21.50;99.90;;;;;;7320004;32;20233;-63
2022/06/06 13:14:24;;;;;;;2.67;0.70;;;21.40;99.90;;;;;;7321985;32;20111;-59
2022/06/06 13:18:57;;;;;;;4.95;0.70;;;21.50;99.90;;;;;;7314627;32;20230;-60
2022/06/06 13:23:17;;;;;;;2.12;0.50;;;21.00;99.90;;;;;;7331127;32;20319;-63
2022/06/06 13:27:25;;;;;;;1.70;0.77;;;20.80;99.90;;;;;;7320666;32;20589;-60
2022/06/06 13:31:54;;;;;;;2.75;0.70;;;21.10;99.90;;;;;;7321519;32;20936;-64
2022/06/06 13:36:34;;;;;;;1.40;0.60;;;21.60;99.90;;;;;;7330590;32;20261;-58
2022/06/06 13:40:41;;;;;;;3.80;0.55;;;21.80;99.90;;;;;;7325168;32;20103;-59
2022/06/06 13:45:02;;;;;;;;;;;21.40;99.80;;;;;;7312908;32;20320;-59
2022/06/06 13:49:10;;;;;;;3.03;0.50;;;21.30;99.30;;;;;;7332862;32;20011;-58
2022/06/06 13:53:29;;;;;;;1.83;0.43;;;21.40;99.30;;;;;;7320291;32;20658;-64
2022/06/06 13:57:46;;;;;;;3.85;0.80;;;21.80;97.60;;;;;;7316042;32;20934;-64
2022/06/06 14:02:17;;;;;;;1.73;0.52;;;21.90;96.70;;;;;;7320454;32;20212;-64
2022/06/06 14:06:52;;;;;;;6.00;0.60;;;21.90;95.50;;;;;;7322933;32;20104;-65
2022/06/06 14:10:55;;;;;;;2.00;0.60;;;21.90;98.10;;;;;;7319377;32;20134;-63
2022/06/06 14:15:04;;;;;;;1.62;0.40;;;22.20;94.80;;;;;;7318579;32;20137;-63
2022/06/06 14:19:15;;;;;;;2.35;0.60;;;22.30;93.70;;;;;;7323571;32;20198;-65
2022/06/06 14:23:37;;;;;;;3.35;0.60;;;22.30;94.40;;;;;;7319555;32;20134;-64
2022/06/06 14:27:40;;;;;;;1.00;0.37;;;21.80;92.80;;;;;;7317488;32;20141;-60
2022/06/06 14:31:48;;;;;;;4.10;0.62;;;21.60;92.20;;;;;;7318790;32;20233;-63
2022/06/06 14:35:51;;;;;;;1.73;0.50;;;21.30;93.90;;;;;;7316370;32;20489;-64
2022/06/06 14:39:59;;;;;;;3.50;0.85;;;21.20;95.00;;;;;;7324216;32;20449;-64
2022/06/06 14:44:03;;;;;;;1.15;0.43;;;21.20;96.60;;;;;;7320159;32;20114;-64
2022/06/06 14:48:09;;;;;;;0.82;0.40;;;21.20;97.20;;;;;;7323346;32;20111;-62
2022/06/06 14:52:19;;;;;;;1.37;0.50;;;21.00;94.30;;;;;;7319889;32;20203;-63
2022/06/06 14:56:28;;;;;;;0.98;0.47;;;20.80;95.10;;;;;;7318643;32;20104;-62
2022/06/06 15:00:37;;;;;;;1.27;0.50;;;20.70;94.30;;;;;;7319127;32;20266;-62
2022/06/06 15:04:41;;;;;;;2.12;0.55;;;20.60;94.20;;;;;;7324758;32;20386;-64
2022/06/06 15:08:49;;;;;;;1.85;0.55;;;20.80;96.70;;;;;;7327916;32;20210;-62
2022/06/06 15:12:51;;;;;;;1.48;0.40;;;20.90;94.90;;;;;;7330360;32;20115;-63
2022/06/06 15:16:55;;;;;;;2.90;0.60;;;20.70;94.90;;;;;;7324255;32;20113;-64
2022/06/06 15:21:00;;;;;;;3.22;0.60;;;20.70;98.00;;;;;;7330707;32;20158;-64
2022/06/06 15:25:04;;;;;;;3.95;0.70;;;20.70;97.00;;;;;;7329376;32;20802;-65
2022/06/06 15:29:24;;;;;;;3.62;0.70;;;20.60;97.80;;;;;;7315366;32;20591;-63
2022/06/06 15:34:16;;;;;;;3.03;0.65;;;20.80;97.20;;;;;;7331608;32;20762;-64
2022/06/06 15:38:36;;;;;;;2.42;0.60;;;21.20;96.90;;;;;;7334878;32;20126;-66
2022/06/06 15:42:46;;;;;;;2.72;0.50;;;21.10;97.40;;;;;;7325643;32;20107;-66
2022/06/06 15:46:55;;;;;;;3.55;0.60;;;21.10;95.90;;;;;;7322853;32;20119;-65
2022/06/06 15:51:17;;;;;;;1.52;0.40;;;21.20;96.40;;;;;;7319072;32;20176;-64
2022/06/06 15:55:29;;;;;;;4.18;0.50;;;20.90;96.20;;;;;;7325546;32;20112;-64
2022/06/06 15:59:52;;;;;;;1.25;0.50;;;20.60;95.50;;;;;;7321055;32;20130;-65
2022/06/06 16:04:16;;;;;;;1.17;0.50;;;20.60;95.60;;;;;;7325337;32;20172;-60
2022/06/06 16:08:26;;;;;;;1.48;0.40;;;20.60;96.10;;;;;;7322574;32;20120;-64
2022/06/06 16:13:05;;;;;;;3.70;0.52;;;20.50;94.60;;;;;;7310989;32;20471;-64
2022/06/06 16:17:31;;;;;;;0.98;0.50;;;20.30;95.70;;;;;;7327568;32;20482;-65
2022/06/06 16:21:43;;;;;;;1.12;0.52;;;20.10;95.70;;;;;;7324654;32;20283;-63
2022/06/06 16:26:10;;;;;;;2.17;0.70;;;20.10;96.90;;;;;;7322749;32;20169;-64
2022/06/06 16:30:13;;;;;;;;;;;20.10;97.10;;;;;;7296753;32;20195;-62
2022/06/06 16:34:20;;;;;;;1.10;0.50;;;20.00;98.40;;;;;;7332224;32;20386;-63
2022/06/06 16:38:29;;;;;;;2.37;0.85;;;20.00;98.50;;;;;;7321109;32;20212;-62
2022/06/06 16:52:00;;;;;;;3.90;0.70;;;19.80;99.20;;;;;;7320477;32;20214;-63
2022/06/06 16:56:07;;;;;;;1.05;0.50;;;19.80;99.60;;;;;;7325259;32;20111;-59
2022/06/06 17:00:23;;;;;;;1.58;0.50;;;19.80;99.90;;;;;;7325764;32;20144;-60
2022/06/06 17:04:25;;;;;;;5.03;0.70;;;19.70;99.90;;;;;;7329667;32;20620;-59
2022/06/06 17:08:38;;;;;;;3.53;0.70;;;19.70;99.90;;;;;;7319077;32;21120;-64
2022/06/06 17:12:56;;;;;;;4.80;0.70;;;19.50;99.90;;;;;;7324885;32;20124;-64
2022/06/06 17:16:57;;;;;;;1.12;0.85;;;19.40;99.90;;;;;;7317938;32;20126;-64
2022/06/06 17:21:22;;;;;;;2.00;0.80;;;19.30;99.90;;;;;;7318736;32;20789;-63
2022/06/06 17:25:46;;;;;;;1.85;0.50;;;19.20;99.90;;;;;;7320938;32;20195;-64
2022/06/06 17:30:12;;;;;;;1.62;0.52;;;19.10;99.90;;;;;;7329560;32;20182;-64
2022/06/06 17:34:17;;;;;;;1.27;0.50;;;19.00;99.90;;;;;;7323543;32;20579;-64
2022/06/06 17:38:36;;;;;;;2.37;0.60;;;18.90;99.90;;;;;;7319622;32;20448;-65
2022/06/06 17:42:49;;;;;;;3.67;0.80;;;18.80;99.90;;;;;;7316836;32;20370;-63
2022/06/06 17:47:00;;;;;;;2.35;0.90;;;18.70;99.90;;;;;;7325072;32;20106;-66
2022/06/06 17:51:32;;;;;;;3.65;0.73;;;18.60;99.90;;;;;;7303567;32;20167;-64
2022/06/06 17:55:57;;;;;;;5.15;0.80;;;18.60;99.90;;;;;;7319485;32;20317;-62
2022/06/06 18:00:10;;;;;;;4.47;0.82;;;18.50;99.90;;;;;;7315099;32;20107;-62
2022/06/06 18:04:48;;;;;;;2.47;0.50;;;18.30;99.90;;;;;;7320757;32;20095;-62
2022/06/06 18:09:24;;;;;;;2.25;0.60;;;18.40;99.90;;;;;;7318351;32;20776;-62
2022/06/06 18:13:49;;;;;;;1.62;0.60;;;18.40;99.90;;;;;;7315902;32;20130;-65
2022/06/06 18:17:56;;;;;;;5.65;0.60;;;18.30;99.90;;;;;;7310759;32;20476;-63
2022/06/06 18:22:00;;;;;;;2.33;0.70;;;18.20;99.90;;;;;;7317531;32;20137;-64
2022/06/06 18:26:07;;;;;;;3.62;0.85;;;18.20;99.90;;;;;;7327850;32;20587;-64
2022/06/06 18:30:20;;;;;;;1.93;0.60;;;18.10;99.90;;;;;;7320262;32;20222;-65
2022/06/06 18:34:32;;;;;;;4.05;0.88;;;18.20;99.90;;;;;;7317442;32;20107;-68
2022/06/06 18:38:42;;;;;;;2.12;0.50;;;18.20;99.90;;;;;;7318095;32;20198;-66
2022/06/06 18:42:46;;;;;;;1.83;0.70;;;18.10;99.90;;;;;;7317708;32;20958;-65
2022/06/06 18:46:48;;;;;;;2.42;0.60;;;18.00;99.90;;;;;;7318169;32;20130;-67
2022/06/06 18:50:58;;;;;;;4.97;0.70;;;18.00;99.90;;;;;;7314595;32;20125;-67
2022/06/06 18:55:01;;;;;;;2.00;0.52;;;17.90;99.90;;;;;;7321148;32;20146;-65
2022/06/06 18:59:28;;;;;;;1.48;0.70;;;17.90;99.90;;;;;;7318026;32;20139;-64
2022/06/06 19:03:37;;;;;;;1.35;0.43;;;17.90;99.90;;;;;;7319622;32;20601;-65
2022/06/06 19:07:40;;;;;;;1.75;0.60;;;17.80;99.90;;;;;;7322279;32;20237;-65
2022/06/06 19:11:42;;;;;;;2.87;0.68;;;17.80;99.90;;;;;;7321485;32;20125;-67
2022/06/06 19:15:45;;;;;;;3.53;0.80;;;17.70;99.90;;;;;;7319917;32;20288;-64
2022/06/06 19:19:56;;;;;;;2.00;0.73;;;17.70;99.90;;;;;;7321828;32;20210;-67
2022/06/06 19:24:01;;;;;;;2.08;0.57;;;17.60;99.90;;;;;;7319385;32;20111;-63
2022/06/06 19:28:07;;;;;;;1.70;0.60;;;17.60;99.90;;;;;;7319469;32;20773;-64
2022/06/06 19:32:18;;;;;;;2.42;0.55;;;17.50;99.90;;;;;;7317055;32;20143;-64
2022/06/06 19:36:22;;;;;;;1.45;0.70;;;17.50;99.90;;;;;;7313257;32;20292;-65
2022/06/06 19:40:33;;;;;;;2.55;0.88;;;17.50;99.90;;;;;;7318828;32;20229;-64
2022/06/06 19:44:39;;;;;;;4.72;0.70;;;17.30;99.90;;;;;;7325839;32;20214;-64
2022/06/06 19:48:51;;;;;;;2.42;0.90;;;17.20;99.90;;;;;;7323390;32;20135;-63
2022/06/06 19:52:56;;;;;;;4.87;0.73;;;17.10;99.90;;;;;;7315450;32;20117;-64
2022/06/06 19:57:11;;;;;;;3.75;1.05;;;17.00;99.90;;;;;;7333880;32;20481;-64
2022/06/06 20:01:18;;;;;;;7.30;1.23;;;16.80;99.90;;;;;;7326860;32;20115;-64
2022/06/06 20:05:31;;;;;;;4.83;1.33;;;16.80;99.90;;;;;;7327151;32;20107;-64
2022/06/06 20:09:36;;;;;;;3.85;1.30;;;16.70;99.90;;;;;;7323267;32;20207;-65
2022/06/06 20:13:53;;;;;;;3.00;1.10;;;16.60;99.90;;;;;;7317518;32;20111;-64
2022/06/06 20:17:59;;;;;;;2.83;1.20;;;16.50;99.90;;;;;;7324196;32;20523;-64
2022/06/06 20:22:21;;;;;;;5.15;1.30;;;16.30;99.90;;;;;;7326953;32;20116;-64
2022/06/06 20:26:26;;;;;;;4.65;0.90;;;16.20;99.90;;;;;;7325967;32;20139;-66
2022/06/06 20:30:34;;;;;;;6.57;1.50;;;16.30;99.90;;;;;;7318428;32;20111;-64
2022/06/06 20:34:48;;;;;;;3.78;1.30;;;16.20;99.90;;;;;;7316228;32;20115;-64
2022/06/06 20:38:50;;;;;;;4.15;1.60;;;16.00;99.90;;;;;;7326174;32;20225;-64
2022/06/06 20:42:55;;;;;;;6.30;1.58;;;16.00;99.90;;;;;;7323780;32;20112;-64
2022/06/06 20:47:00;;;;;;;3.30;1.65;;;15.70;99.90;;;;;;7314501;32;20141;-63
2022/06/06 20:51:15;;;;;;;4.82;1.50;;;15.70;99.90;;;;;;7327115;32;20211;-66
2022/06/06 20:55:20;;;;;;;2.40;1.73;;;15.50;99.90;;;;;;7322337;32;20273;-63
2022/06/06 20:59:23;;;;;;;3.45;1.90;;;15.50;99.90;;;;;;7325888;32;20112;-65
2022/06/06 21:03:25;;;;;;;3.08;1.95;;;15.40;99.90;;;;;;7322195;32;20222;-62
2022/06/06 21:07:30;;;;;;;3.42;2.03;;;15.10;99.90;;;;;;7318967;32;20141;-64
2022/06/06 21:11:38;;;;;;;4.75;1.87;;;15.00;99.90;;;;;;7335525;32;21523;-65
2022/06/06 21:15:39;;;;;;;8.60;2.50;;;15.00;99.90;;;;;;7326106;32;20112;-63
2022/06/06 21:19:42;;;;;;;7.47;2.50;;;14.90;99.90;;;;;;7322590;32;20131;-63
2022/06/06 21:23:44;;;;;;;3.37;2.08;;;14.90;99.90;;;;;;7330947;32;20135;-64
2022/06/06 21:27:47;;;;;;;2.35;2.15;;;14.80;99.90;;;;;;7326456;32;20115;-62
2022/06/06 21:31:49;;;;;;;2.97;2.10;;;14.70;99.90;;;;;;7332148;32;20171;-63
2022/06/06 21:35:50;;;;;;;3.05;1.95;;;14.70;99.90;;;;;;7318607;32;20202;-63
2022/06/06 21:39:52;;;;;;;2.05;1.70;;;14.70;99.90;;;;;;7325847;32;20824;-63
2022/06/06 21:43:55;;;;;;;1.95;1.83;;;14.60;99.90;;;;;;7322335;32;20233;-62
2022/06/06 21:47:57;;;;;;;2.53;1.70;;;14.50;99.90;;;;;;7322690;32;20606;-62
2022/06/06 21:51:58;;;;;;;3.00;2.10;;;14.40;99.90;;;;;;7323664;32;20138;-61
2022/06/06 21:56:00;;;;;;;5.12;2.10;;;14.40;99.90;;;;;;7321836;32;20199;-62
2022/06/06 22:00:13;;;;;;;4.37;1.73;;;14.30;99.90;;;;;;7329228;32;20771;-64
2022/06/06 22:04:16;;;;;;;3.47;2.40;;;14.20;99.90;;;;;;7322807;32;20209;-62
2022/06/06 22:08:18;;;;;;;2.50;1.90;;;14.10;99.90;;;;;;7323567;32;20099;-62
2022/06/06 22:12:20;;;;;;;6.40;2.05;;;14.00;99.90;;;;;;7329390;32;20103;-63
2022/06/06 22:16:23;;;;;;;5.28;2.60;;;13.90;99.90;;;;;;7325230;32;20125;-64
2022/06/06 22:20:25;;;;;;;4.32;2.60;;;13.80;99.90;;;;;;7322078;32;20239;-62
2022/06/06 22:24:27;;;;;;;4.25;2.60;;;13.80;99.90;;;;;;7328196;32;20140;-61
2022/06/06 22:28:29;;;;;;;5.35;2.53;;;13.70;99.90;;;;;;7327402;32;20146;-61
2022/06/06 22:32:30;;;;;;;3.65;3.03;;;13.60;99.90;;;;;;7321324;32;20119;-61